Flight Track Log - Related Links

Times and Time Zones

All times are in EDT time to prevent confusion due to time zone crossing. See the KAP329 flight status page for this flight to view local times or setup timezone preferences in your user account.

Time Position Orientation Groundspeed Altitude Reporting Facility
EDT Latitude Longitude Course Direction KTS MPH feet Rate Location/Type
Mon 06:41:35 PM 42.7625 -73.8597 295° West 116 133 1,900  Level Boston Center
Mon 06:42:36 PM 42.7936 -73.8831 331° Northwest 122 140 3,100 843 Climbing Boston Center
Mon 06:43:36 PM 42.8203 -73.9119 322° Northwest 125 144 3,600 496 Climbing Boston Center
Mon 06:44:37 PM 42.8511 -73.9325 334° Northwest 126 145 4,100 545 Climbing Boston Center
Mon 06:45:37 PM 42.8800 -73.9558 329° Northwest 127 146 4,700 595 Climbing Boston Center
Mon 06:46:38 PM 42.9131 -73.9794 332° Northwest 125 144 5,300 609 Climbing Boston Center
Mon 06:47:45 PM 42.9481 -74.0086 329° Northwest 125 144 6,000 614 Climbing Boston Center
Mon 06:48:45 PM 42.9769 -74.0350 326° Northwest 124 143 6,600 595 Climbing Boston Center
Mon 06:49:46 PM 43.0039 -74.0556 331° Northwest 123 142 7,200 569 Climbing Boston Center
Mon 06:50:41 PM 43.0325 -74.0819 326° Northwest 124 143 7,700 508 Climbing Boston Center
Mon 06:51:44 PM 43.0594 -74.1025 331° Northwest 127 146 8,200 537 Climbing Boston Center
Mon 06:52:44 PM 43.0922 -74.1289 330° Northwest 127 146 8,800 550 Climbing Boston Center
Mon 06:53:44 PM 43.1192 -74.1494 331° Northwest 127 146 9,300 500 Climbing Boston Center
Mon 06:54:44 PM 43.1542 -74.1789 328° Northwest 121 139 9,800 350 Climbing Boston Center
Mon 06:55:44 PM 43.1828 -74.2025 329° Northwest 126 145 10,000 100 Climbing Boston Center
Mon 06:56:44 PM 43.2242 -74.2353 330° Northwest 144 166 10,000  Level Boston Center
Mon 06:57:44 PM 43.2550 -74.2589 331° Northwest 144 166 10,000  Level Boston Center
Mon 06:58:44 PM 43.2942 -74.2914 329° Northwest 144 166 10,000  Level Boston Center
Mon 06:59:44 PM 43.3250 -74.3181 328° Northwest 144 166 10,000  Level Boston Center
Mon 07:00:44 PM 43.3619 -74.3506 327° Northwest 144 166 10,000  Level Boston Center
Mon 07:01:44 PM 43.3969 -74.3775 331° Northwest 144 166 10,000  Level Boston Center
Mon 07:02:44 PM 43.4297 -74.4072 327° Northwest 144 166 10,000  Level Boston Center
Mon 07:03:44 PM 43.4647 -74.4339 331° Northwest 144 166 10,000  Level Boston Center
Mon 07:04:44 PM 43.4975 -74.4608 329° Northwest 144 166 10,000 50 Level Boston Center
Mon 07:05:44 PM 43.5303 -74.4933 324° Northwest 144 166 10,100 50 Climbing Boston Center
Mon 07:06:44 PM 43.5631 -74.5231 327° Northwest 144 166 10,100  Level Boston Center
Mon 07:07:44 PM 43.6000 -74.5503 332° Northwest 144 166 10,100  Level Boston Center
Mon 07:08:44 PM 43.6331 -74.5772 329° Northwest 144 166 10,100  Level Boston Center
Mon 07:09:44 PM 43.6700 -74.6044 332° Northwest 144 166 10,100  Level Boston Center
Mon 07:10:44 PM 43.7050 -74.6314 331° Northwest 144 166 10,100  Level Boston Center
Mon 07:11:44 PM 43.7419 -74.6558 334° Northwest 144 166 10,100  Level Boston Center
Mon 07:12:44 PM 43.7769 -74.6831 331° Northwest 144 166 10,100  Level Boston Center
Mon 07:13:44 PM 43.8139 -74.7103 332° Northwest 139 160 10,100  Level Boston Center
Mon 07:14:44 PM 43.8508 -74.7347 334° Northwest 139 160 10,100  Level Boston Center
Mon 07:15:44 PM 43.8856 -74.7678 326° Northwest 139 160 10,100  Level Boston Center
Mon 07:16:44 PM 43.9183 -74.7950 329° Northwest 139 160 10,100 -50 Level Boston Center
Mon 07:17:44 PM 43.9553 -74.8253 329° Northwest 139 160 10,000 -300 Descending Boston Center
Mon 07:18:44 PM 43.9900 -74.8611 323° Northwest 145 167 9,500 -450 Descending Boston Center
Mon 07:19:44 PM 44.0267 -74.8944 327° Northwest 155 178 9,100 -450 Descending Boston Center
Mon 07:20:44 PM 44.0636 -74.9278 327° Northwest 155 178 8,600 -450 Descending Boston Center
Mon 07:21:44 PM 44.1044 -74.9614 329° Northwest 161 185 8,200 -400 Descending Boston Center
Mon 07:22:44 PM 44.1392 -74.9917 328° Northwest 161 185 7,800 -400 Descending Boston Center
Mon 07:23:44 PM 44.1781 -75.0222 331° Northwest 167 192 7,400 -400 Descending Boston Center
Mon 07:24:44 PM 44.2169 -75.0589 326° Northwest 162 186 7,000 -450 Descending Boston Center
Mon 07:25:44 PM 44.2558 -75.0894 331° Northwest 162 186 6,500 -500 Descending Boston Center
Mon 07:26:44 PM 44.2969 -75.1175 334° Northwest 162 186 6,000 -550 Descending Boston Center
Mon 07:27:44 PM 44.3358 -75.1483 330° Northwest 162 186 5,400 -550 Descending Boston Center
Mon 07:28:44 PM 44.3744 -75.1819 328° Northwest 162 186 4,900 -500 Descending Boston Center

Login

Don't have an account? Register now (free) for customized features, flight alerts, and more!